sensor_id;sensor_type;location;lat;lon;timestamp;pressure;altitude;pressure_sealevel;temperature;humidity
43119;BME280;28729;49.838;8.650;2023-01-19T00:02:19;98675.50;;;-0.82;98.51
43119;BME280;28729;49.838;8.650;2023-01-19T00:06:21;98680.50;;;-0.79;99.06
43119;BME280;28729;49.838;8.650;2023-01-19T00:10:23;98684.44;;;-0.75;99.16
43119;BME280;28729;49.838;8.650;2023-01-19T00:14:24;98684.69;;;-0.70;98.57
43119;BME280;28729;49.838;8.650;2023-01-19T00:18:26;98673.63;;;-0.69;98.40
43119;BME280;28729;49.838;8.650;2023-01-19T00:22:28;98672.81;;;-0.69;98.81
43119;BME280;28729;49.838;8.650;2023-01-19T00:26:29;98669.09;;;-0.68;98.81
43119;BME280;28729;49.838;8.650;2023-01-19T00:30:31;98678.84;;;-0.67;99.30
43119;BME280;28729;49.838;8.650;2023-01-19T00:34:32;98682.81;;;-0.70;99.94
43119;BME280;28729;49.838;8.650;2023-01-19T00:38:40;98689.25;;;-0.71;99.66
43119;BME280;28729;49.838;8.650;2023-01-19T00:42:41;98690.50;;;-0.73;100.00
43119;BME280;28729;49.838;8.650;2023-01-19T00:46:48;98701.53;;;-0.68;100.00
43119;BME280;28729;49.838;8.650;2023-01-19T00:50:50;98701.13;;;-0.65;100.00
43119;BME280;28729;49.838;8.650;2023-01-19T00:54:51;98698.63;;;-0.60;100.00
43119;BME280;28729;49.838;8.650;2023-01-19T00:58:53;98707.19;;;-0.56;100.00
43119;BME280;28729;49.838;8.650;2023-01-19T01:02:54;98701.16;;;-0.52;100.00
43119;BME280;28729;49.838;8.650;2023-01-19T01:06:56;98706.56;;;-0.52;100.00
43119;BME280;28729;49.838;8.650;2023-01-19T01:10:58;98708.22;;;-0.51;100.00
43119;BME280;28729;49.838;8.650;2023-01-19T01:15:04;98711.34;;;-0.54;100.00
43119;BME280;28729;49.838;8.650;2023-01-19T01:19:06;98721.13;;;-0.53;100.00
43119;BME280;28729;49.838;8.650;2023-01-19T01:23:08;98724.88;;;-0.54;100.00
43119;BME280;28729;49.838;8.650;2023-01-19T01:27:09;98719.03;;;-0.51;100.00
43119;BME280;28729;49.838;8.650;2023-01-19T01:31:12;98721.97;;;-0.46;100.00
43119;BME280;28729;49.838;8.650;2023-01-19T01:35:14;98715.34;;;-0.30;100.00
43119;BME280;28729;49.838;8.650;2023-01-19T01:39:15;98722.22;;;-0.14;100.00
43119;BME280;28729;49.838;8.650;2023-01-19T01:43:18;98717.88;;;-0.08;100.00
43119;BME280;28729;49.838;8.650;2023-01-19T01:51:51;98723.88;;;-0.06;100.00
43119;BME280;28729;49.838;8.650;2023-01-19T01:55:54;98724.94;;;-0.07;100.00
43119;BME280;28729;49.838;8.650;2023-01-19T01:59:56;98731.41;;;-0.08;100.00
43119;BME280;28729;49.838;8.650;2023-01-19T02:03:58;98719.53;;;-0.14;100.00
43119;BME280;28729;49.838;8.650;2023-01-19T02:08:09;98722.66;;;-0.17;100.00
43119;BME280;28729;49.838;8.650;2023-01-19T02:12:31;98724.06;;;-0.21;100.00
43119;BME280;28729;49.838;8.650;2023-01-19T02:16:51;98731.19;;;-0.27;100.00
43119;BME280;28729;49.838;8.650;2023-01-19T02:20:58;98729.09;;;-0.31;100.00
43119;BME280;28729;49.838;8.650;2023-01-19T02:25:03;98725.72;;;-0.33;100.00
43119;BME280;28729;49.838;8.650;2023-01-19T02:29:11;98728.25;;;-0.38;100.00
43119;BME280;28729;49.838;8.650;2023-01-19T02:33:13;98736.13;;;-0.43;100.00
43119;BME280;28729;49.838;8.650;2023-01-19T02:37:16;98726.13;;;-0.50;100.00
43119;BME280;28729;49.838;8.650;2023-01-19T02:41:22;98731.34;;;-0.48;100.00
43119;BME280;28729;49.838;8.650;2023-01-19T02:45:25;98724.44;;;-0.51;100.00
43119;BME280;28729;49.838;8.650;2023-01-19T02:49:28;98728.63;;;-0.55;100.00
43119;BME280;28729;49.838;8.650;2023-01-19T02:54:01;98736.09;;;-0.57;100.00
43119;BME280;28729;49.838;8.650;2023-01-19T03:02:34;98731.97;;;-0.59;100.00
43119;BME280;28729;49.838;8.650;2023-01-19T03:07:07;98729.25;;;-0.59;100.00
43119;BME280;28729;49.838;8.650;2023-01-19T03:11:11;98727.38;;;-0.59;100.00
43119;BME280;28729;49.838;8.650;2023-01-19T03:15:22;98726.31;;;-0.58;100.00
43119;BME280;28729;49.838;8.650;2023-01-19T03:19:33;98739.44;;;-0.55;100.00
43119;BME280;28729;49.838;8.650;2023-01-19T03:23:39;98736.56;;;-0.47;100.00
43119;BME280;28729;49.838;8.650;2023-01-19T03:27:43;98742.38;;;-0.36;100.00
43119;BME280;28729;49.838;8.650;2023-01-19T03:31:47;98743.84;;;-0.27;100.00
43119;BME280;28729;49.838;8.650;2023-01-19T03:35:53;98739.31;;;-0.20;100.00
43119;BME280;28729;49.838;8.650;2023-01-19T03:39:58;98738.47;;;-0.14;100.00
43119;BME280;28729;49.838;8.650;2023-01-19T03:44:00;98742.00;;;-0.07;100.00
43119;BME280;28729;49.838;8.650;2023-01-19T03:48:03;98735.75;;;-0.01;100.00
43119;BME280;28729;49.838;8.650;2023-01-19T03:52:05;98739.09;;;0.02;100.00
43119;BME280;28729;49.838;8.650;2023-01-19T03:56:18;98738.28;;;0.08;100.00
43119;BME280;28729;49.838;8.650;2023-01-19T04:00:20;98739.72;;;0.17;100.00
43119;BME280;28729;49.838;8.650;2023-01-19T04:04:21;98744.50;;;0.28;100.00
43119;BME280;28729;49.838;8.650;2023-01-19T04:08:23;98736.59;;;0.33;100.00
43119;BME280;28729;49.838;8.650;2023-01-19T04:12:24;98732.00;;;0.40;100.00
43119;BME280;28729;49.838;8.650;2023-01-19T04:16:26;98735.34;;;0.42;100.00
43119;BME280;28729;49.838;8.650;2023-01-19T04:20:28;98729.91;;;0.42;100.00
43119;BME280;28729;49.838;8.650;2023-01-19T04:24:30;98725.94;;;0.52;100.00
43119;BME280;28729;49.838;8.650;2023-01-19T04:28:33;98754.88;;;0.64;100.00
43119;BME280;28729;49.838;8.650;2023-01-19T04:32:35;98759.88;;;0.74;100.00
43119;BME280;28729;49.838;8.650;2023-01-19T04:36:36;98751.72;;;0.81;100.00
43119;BME280;28729;49.838;8.650;2023-01-19T04:40:38;98749.19;;;0.86;100.00
43119;BME280;28729;49.838;8.650;2023-01-19T04:44:40;98738.34;;;0.86;100.00
43119;BME280;28729;49.838;8.650;2023-01-19T04:48:41;98735.44;;;0.87;100.00
43119;BME280;28729;49.838;8.650;2023-01-19T04:52:43;98743.13;;;0.97;100.00
43119;BME280;28729;49.838;8.650;2023-01-19T04:56:44;98746.84;;;1.03;100.00
43119;BME280;28729;49.838;8.650;2023-01-19T05:00:47;98756.25;;;1.00;100.00
43119;BME280;28729;49.838;8.650;2023-01-19T05:04:49;98756.66;;;1.04;100.00
43119;BME280;28729;49.838;8.650;2023-01-19T05:08:50;98765.22;;;1.07;100.00
43119;BME280;28729;49.838;8.650;2023-01-19T05:12:52;98764.56;;;1.12;100.00
43119;BME280;28729;49.838;8.650;2023-01-19T05:16:54;98760.63;;;1.08;100.00
43119;BME280;28729;49.838;8.650;2023-01-19T05:20:55;98763.34;;;1.08;100.00
43119;BME280;28729;49.838;8.650;2023-01-19T05:24:57;98771.88;;;1.11;100.00
43119;BME280;28729;49.838;8.650;2023-01-19T05:28:59;98769.38;;;1.03;100.00
43119;BME280;28729;49.838;8.650;2023-01-19T05:33:00;98767.31;;;0.92;100.00
43119;BME280;28729;49.838;8.650;2023-01-19T05:37:02;98767.97;;;0.87;100.00
43119;BME280;28729;49.838;8.650;2023-01-19T05:41:04;98766.53;;;0.78;100.00
43119;BME280;28729;49.838;8.650;2023-01-19T05:45:06;98769.28;;;0.65;100.00
43119;BME280;28729;49.838;8.650;2023-01-19T05:49:08;98769.94;;;0.54;100.00
43119;BME280;28729;49.838;8.650;2023-01-19T05:53:10;98775.34;;;0.54;100.00
43119;BME280;28729;49.838;8.650;2023-01-19T05:57:12;98765.75;;;0.58;100.00
43119;BME280;28729;49.838;8.650;2023-01-19T06:01:25;98764.88;;;0.71;100.00
43119;BME280;28729;49.838;8.650;2023-01-19T06:05:27;98776.75;;;0.76;100.00
43119;BME280;28729;49.838;8.650;2023-01-19T06:09:29;98770.91;;;0.79;100.00
43119;BME280;28729;49.838;8.650;2023-01-19T06:13:32;98780.47;;;0.88;100.00
43119;BME280;28729;49.838;8.650;2023-01-19T06:17:33;98782.97;;;0.97;100.00
43119;BME280;28729;49.838;8.650;2023-01-19T06:21:35;98776.50;;;0.98;100.00
43119;BME280;28729;49.838;8.650;2023-01-19T06:25:37;98790.66;;;1.06;100.00
43119;BME280;28729;49.838;8.650;2023-01-19T06:29:39;98795.88;;;1.08;100.00
43119;BME280;28729;49.838;8.650;2023-01-19T06:33:41;98789.41;;;1.09;100.00
43119;BME280;28729;49.838;8.650;2023-01-19T06:37:43;98806.31;;;1.11;100.00
43119;BME280;28729;49.838;8.650;2023-01-19T06:41:44;98797.75;;;1.14;100.00
43119;BME280;28729;49.838;8.650;2023-01-19T06:45:46;98802.50;;;1.19;100.00
43119;BME280;28729;49.838;8.650;2023-01-19T06:49:48;98804.44;;;1.11;100.00
43119;BME280;28729;49.838;8.650;2023-01-19T06:53:50;98815.91;;;1.13;100.00
43119;BME280;28729;49.838;8.650;2023-01-19T06:57:58;98817.38;;;1.16;100.00
43119;BME280;28729;49.838;8.650;2023-01-19T07:01:59;98820.72;;;1.11;100.00
43119;BME280;28729;49.838;8.650;2023-01-19T07:06:21;98826.16;;;1.05;100.00
43119;BME280;28729;49.838;8.650;2023-01-19T07:10:23;98832.59;;;1.04;100.00
43119;BME280;28729;49.838;8.650;2023-01-19T07:14:25;98840.94;;;1.09;100.00
43119;BME280;28729;49.838;8.650;2023-01-19T07:18:31;98849.72;;;1.11;100.00
43119;BME280;28729;49.838;8.650;2023-01-19T07:22:33;98847.41;;;1.14;100.00
43119;BME280;28729;49.838;8.650;2023-01-19T07:26:35;98855.56;;;1.08;100.00
43119;BME280;28729;49.838;8.650;2023-01-19T07:30:37;98854.94;;;1.06;100.00
43119;BME280;28729;49.838;8.650;2023-01-19T07:34:39;98864.13;;;1.05;100.00
43119;BME280;28729;49.838;8.650;2023-01-19T07:38:41;98862.03;;;1.07;100.00
43119;BME280;28729;49.838;8.650;2023-01-19T07:42:47;98858.31;;;1.01;100.00
43119;BME280;28729;49.838;8.650;2023-01-19T07:46:49;98868.09;;;1.02;100.00
43119;BME280;28729;49.838;8.650;2023-01-19T07:50:51;98868.31;;;1.07;100.00
43119;BME280;28729;49.838;8.650;2023-01-19T07:54:53;98868.72;;;1.11;100.00
43119;BME280;28729;49.838;8.650;2023-01-19T07:58:55;98868.72;;;1.11;100.00
43119;BME280;28729;49.838;8.650;2023-01-19T08:03:02;98856.81;;;1.12;100.00
43119;BME280;28729;49.838;8.650;2023-01-19T08:07:05;98861.03;;;1.01;100.00
43119;BME280;28729;49.838;8.650;2023-01-19T08:11:07;98873.09;;;1.05;100.00
43119;BME280;28729;49.838;8.650;2023-01-19T08:15:10;98863.72;;;0.95;100.00
43119;BME280;28729;49.838;8.650;2023-01-19T08:19:11;98863.31;;;0.91;100.00
43119;BME280;28729;49.838;8.650;2023-01-19T08:23:13;98862.91;;;0.94;100.00
43119;BME280;28729;49.838;8.650;2023-01-19T08:27:15;98862.69;;;0.89;100.00
43119;BME280;28729;49.838;8.650;2023-01-19T08:31:17;98857.47;;;0.87;100.00
43119;BME280;28729;49.838;8.650;2023-01-19T08:35:24;98857.28;;;0.82;100.00
43119;BME280;28729;49.838;8.650;2023-01-19T08:39:26;98864.16;;;0.78;100.00
43119;BME280;28729;49.838;8.650;2023-01-19T08:43:28;98860.63;;;0.78;100.00
43119;BME280;28729;49.838;8.650;2023-01-19T08:47:29;98865.63;;;0.74;100.00
43119;BME280;28729;49.838;8.650;2023-01-19T08:51:31;98864.16;;;0.78;100.00
43119;BME280;28729;49.838;8.650;2023-01-19T08:55:35;98864.16;;;0.98;100.00
43119;BME280;28729;49.838;8.650;2023-01-19T08:59:36;98863.09;;;1.06;100.00
43119;BME280;28729;49.838;8.650;2023-01-19T09:03:38;98854.94;;;1.12;100.00
43119;BME280;28729;49.838;8.650;2023-01-19T09:07:40;98874.53;;;1.21;100.00
43119;BME280;28729;49.838;8.650;2023-01-19T09:11:42;98872.41;;;1.36;100.00
43119;BME280;28729;49.838;8.650;2023-01-19T09:15:44;98871.59;;;1.29;100.00
43119;BME280;28729;49.838;8.650;2023-01-19T09:19:46;98871.13;;;1.39;100.00
43119;BME280;28729;49.838;8.650;2023-01-19T09:23:48;98872.13;;;1.58;100.00
43119;BME280;28729;49.838;8.650;2023-01-19T09:27:49;98877.94;;;1.68;100.00
43119;BME280;28729;49.838;8.650;2023-01-19T09:31:51;98877.03;;;1.81;100.00
43119;BME280;28729;49.838;8.650;2023-01-19T09:35:53;98880.34;;;1.90;100.00
43119;BME280;28729;49.838;8.650;2023-01-19T09:39:55;98872.13;;;2.03;100.00
43119;BME280;28729;49.838;8.650;2023-01-19T09:43:58;98878.53;;;2.15;100.00
43119;BME280;28729;49.838;8.650;2023-01-19T09:48:04;98876.97;;;2.33;100.00
43119;BME280;28729;49.838;8.650;2023-01-19T09:52:12;98882.31;;;2.46;100.00
43119;BME280;28729;49.838;8.650;2023-01-19T09:56:18;98888.50;;;2.60;100.00
43119;BME280;28729;49.838;8.650;2023-01-19T10:00:21;98892.41;;;2.64;99.47
43119;BME280;28729;49.838;8.650;2023-01-19T10:04:40;98886.66;;;2.79;99.56
43119;BME280;28729;49.838;8.650;2023-01-19T10:09:01;98887.84;;;2.89;98.75
43119;BME280;28729;49.838;8.650;2023-01-19T10:21:44;98896.16;;;2.94;98.23
43119;BME280;28729;49.838;8.650;2023-01-19T10:25:46;98898.53;;;3.09;98.01
43119;BME280;28729;49.838;8.650;2023-01-19T10:29:48;98909.03;;;3.49;96.23
43119;BME280;28729;49.838;8.650;2023-01-19T10:33:50;98909.66;;;3.70;93.42
43119;BME280;28729;49.838;8.650;2023-01-19T10:37:54;98905.06;;;4.00;91.78
43119;BME280;28729;49.838;8.650;2023-01-19T10:41:59;98910.38;;;4.14;91.43
43119;BME280;28729;49.838;8.650;2023-01-19T10:46:15;98894.72;;;4.21;90.87
43119;BME280;28729;49.838;8.650;2023-01-19T10:50:29;98899.72;;;4.24;90.34
43119;BME280;28729;49.838;8.650;2023-01-19T10:54:33;98899.13;;;4.22;89.73
43119;BME280;28729;49.838;8.650;2023-01-19T10:58:36;98901.31;;;4.31;90.35
43119;BME280;28729;49.838;8.650;2023-01-19T11:02:49;98898.34;;;4.33;89.16
43119;BME280;28729;49.838;8.650;2023-01-19T11:06:50;98894.59;;;4.16;89.72
43119;BME280;28729;49.838;8.650;2023-01-19T11:11:01;98909.78;;;3.93;90.56
43119;BME280;28729;49.838;8.650;2023-01-19T11:15:13;98906.91;;;3.70;92.12
43119;BME280;28729;49.838;8.650;2023-01-19T11:19:27;98902.84;;;3.60;93.26
43119;BME280;28729;49.838;8.650;2023-01-19T11:23:54;98904.50;;;3.61;94.17
43119;BME280;28729;49.838;8.650;2023-01-19T11:27:57;98906.75;;;3.64;95.54
43119;BME280;28729;49.838;8.650;2023-01-19T11:32:10;98901.16;;;3.59;97.19
43119;BME280;28729;49.838;8.650;2023-01-19T11:36:16;98905.47;;;3.49;97.59
43119;BME280;28729;49.838;8.650;2023-01-19T11:40:18;98904.94;;;3.40;98.43
43119;BME280;28729;49.838;8.650;2023-01-19T11:44:29;98904.41;;;3.31;99.41
43119;BME280;28729;49.838;8.650;2023-01-19T11:48:38;98895.84;;;3.28;100.00
43119;BME280;28729;49.838;8.650;2023-01-19T11:52:46;98902.94;;;3.29;100.00
43119;BME280;28729;49.838;8.650;2023-01-19T11:56:53;98892.34;;;3.20;100.00
43119;BME280;28729;49.838;8.650;2023-01-19T12:01:17;98903.84;;;3.23;100.00
43119;BME280;28729;49.838;8.650;2023-01-19T12:05:25;98901.56;;;3.19;100.00
43119;BME280;28729;49.838;8.650;2023-01-19T12:09:37;98899.69;;;3.20;100.00
43119;BME280;28729;49.838;8.650;2023-01-19T12:13:45;98901.94;;;3.05;100.00
43119;BME280;28729;49.838;8.650;2023-01-19T12:17:51;98887.31;;;2.99;100.00
43119;BME280;28729;49.838;8.650;2023-01-19T12:21:55;98897.59;;;2.97;100.00
43119;BME280;28729;49.838;8.650;2023-01-19T12:30:20;98889.56;;;2.84;100.00
43119;BME280;28729;49.838;8.650;2023-01-19T12:34:28;98887.00;;;2.89;100.00
43119;BME280;28729;49.838;8.650;2023-01-19T12:42:44;98878.09;;;3.00;100.00
43119;BME280;28729;49.838;8.650;2023-01-19T12:46:55;98881.31;;;3.15;100.00
43119;BME280;28729;49.838;8.650;2023-01-19T12:51:03;98876.00;;;3.20;100.00
43119;BME280;28729;49.838;8.650;2023-01-19T12:55:19;98882.91;;;3.23;100.00
43119;BME280;28729;49.838;8.650;2023-01-19T12:59:25;98876.19;;;3.44;100.00
43119;BME280;28729;49.838;8.650;2023-01-19T13:20:32;98861.09;;;3.97;100.00
43119;BME280;28729;49.838;8.650;2023-01-19T13:25:12;98864.78;;;4.02;100.00
43119;BME280;28729;49.838;8.650;2023-01-19T13:29:34;98882.00;;;3.84;100.00
43119;BME280;28729;49.838;8.650;2023-01-19T13:33:49;98886.94;;;3.76;100.00
43119;BME280;28729;49.838;8.650;2023-01-19T13:37:52;98888.22;;;3.73;100.00
43119;BME280;28729;49.838;8.650;2023-01-19T13:41:57;98883.53;;;3.62;100.00
43119;BME280;28729;49.838;8.650;2023-01-19T13:45:59;98885.97;;;3.52;100.00
43119;BME280;28729;49.838;8.650;2023-01-19T13:50:01;98886.91;;;3.39;100.00
43119;BME280;28729;49.838;8.650;2023-01-19T13:54:04;98899.25;;;3.41;100.00
43119;BME280;28729;49.838;8.650;2023-01-19T13:58:19;98898.94;;;3.31;100.00
43119;BME280;28729;49.838;8.650;2023-01-19T14:02:21;98905.31;;;3.25;100.00
43119;BME280;28729;49.838;8.650;2023-01-19T14:06:33;98910.25;;;3.10;100.00
43119;BME280;28729;49.838;8.650;2023-01-19T14:14:39;98920.09;;;2.86;100.00
43119;BME280;28729;49.838;8.650;2023-01-19T14:18:42;98914.75;;;2.72;100.00
43119;BME280;28729;49.838;8.650;2023-01-19T14:22:45;98916.31;;;2.62;100.00
43119;BME280;28729;49.838;8.650;2023-01-19T14:26:49;98927.78;;;2.64;100.00
43119;BME280;28729;49.838;8.650;2023-01-19T14:30:58;98922.13;;;2.65;100.00
43119;BME280;28729;49.838;8.650;2023-01-19T14:39:05;98927.00;;;2.57;100.00
43119;BME280;28729;49.838;8.650;2023-01-19T14:43:14;98929.78;;;2.50;100.00
43119;BME280;28729;49.838;8.650;2023-01-19T14:47:32;98931.63;;;2.49;100.00
43119;BME280;28729;49.838;8.650;2023-01-19T14:51:35;98938.78;;;2.44;100.00
43119;BME280;28729;49.838;8.650;2023-01-19T14:55:42;98939.41;;;2.46;100.00
43119;BME280;28729;49.838;8.650;2023-01-19T14:59:45;98941.50;;;2.44;100.00
43119;BME280;28729;49.838;8.650;2023-01-19T15:03:50;98944.91;;;2.39;100.00
43119;BME280;28729;49.838;8.650;2023-01-19T15:07:51;98950.75;;;2.36;100.00
43119;BME280;28729;49.838;8.650;2023-01-19T15:11:54;98951.44;;;2.25;100.00
43119;BME280;28729;49.838;8.650;2023-01-19T15:15:56;98950.47;;;2.13;100.00
43119;BME280;28729;49.838;8.650;2023-01-19T15:19:58;98951.34;;;2.07;100.00
43119;BME280;28729;49.838;8.650;2023-01-19T15:24:00;98955.31;;;2.04;100.00
43119;BME280;28729;49.838;8.650;2023-01-19T15:28:09;98953.22;;;2.06;100.00
43119;BME280;28729;49.838;8.650;2023-01-19T15:32:12;98964.53;;;2.03;100.00
43119;BME280;28729;49.838;8.650;2023-01-19T15:36:17;98952.81;;;2.02;100.00
43119;BME280;28729;49.838;8.650;2023-01-19T15:40:19;98961.84;;;1.96;100.00
43119;BME280;28729;49.838;8.650;2023-01-19T15:44:23;98952.22;;;1.94;100.00
43119;BME280;28729;49.838;8.650;2023-01-19T15:48:25;98954.94;;;1.87;100.00
43119;BME280;28729;49.838;8.650;2023-01-19T15:52:26;98952.03;;;1.89;100.00
43119;BME280;28729;49.838;8.650;2023-01-19T15:56:29;98960.63;;;1.86;100.00
43119;BME280;28729;49.838;8.650;2023-01-19T16:00:33;98959.56;;;1.87;100.00
43119;BME280;28729;49.838;8.650;2023-01-19T16:04:35;98963.53;;;1.84;100.00
43119;BME280;28729;49.838;8.650;2023-01-19T16:08:36;98962.06;;;1.88;100.00
43119;BME280;28729;49.838;8.650;2023-01-19T16:12:38;98972.91;;;1.95;100.00
43119;BME280;28729;49.838;8.650;2023-01-19T16:16:40;98968.34;;;1.89;100.00
43119;BME280;28729;49.838;8.650;2023-01-19T16:20:43;98968.53;;;1.87;100.00
43119;BME280;28729;49.838;8.650;2023-01-19T16:24:45;98976.25;;;1.97;100.00
43119;BME280;28729;49.838;8.650;2023-01-19T16:28:46;98973.09;;;1.93;100.00
43119;BME280;28729;49.838;8.650;2023-01-19T16:32:48;98981.69;;;1.90;100.00
43119;BME280;28729;49.838;8.650;2023-01-19T16:36:50;98976.69;;;1.94;100.00
43119;BME280;28729;49.838;8.650;2023-01-19T16:40:52;98975.81;;;1.93;100.00
43119;BME280;28729;49.838;8.650;2023-01-19T16:44:54;98979.41;;;1.94;100.00
43119;BME280;28729;49.838;8.650;2023-01-19T16:49:00;98970.81;;;1.97;100.00
43119;BME280;28729;49.838;8.650;2023-01-19T16:53:02;98973.94;;;2.00;100.00
43119;BME280;28729;49.838;8.650;2023-01-19T16:57:04;98973.91;;;2.07;100.00
43119;BME280;28729;49.838;8.650;2023-01-19T17:01:11;98982.88;;;2.08;100.00
43119;BME280;28729;49.838;8.650;2023-01-19T17:05:17;98987.09;;;2.03;100.00
43119;BME280;28729;49.838;8.650;2023-01-19T17:09:18;98990.63;;;2.04;100.00
43119;BME280;28729;49.838;8.650;2023-01-19T17:13:21;98990.84;;;2.09;100.00
43119;BME280;28729;49.838;8.650;2023-01-19T17:17:22;98986.84;;;2.12;100.00
43119;BME280;28729;49.838;8.650;2023-01-19T17:21:24;98994.34;;;2.16;100.00
43119;BME280;28729;49.838;8.650;2023-01-19T17:25:26;98994.59;;;2.15;100.00
43119;BME280;28729;49.838;8.650;2023-01-19T17:29:28;98996.47;;;2.14;100.00
43119;BME280;28729;49.838;8.650;2023-01-19T17:33:29;98996.63;;;2.19;100.00
43119;BME280;28729;49.838;8.650;2023-01-19T17:37:31;98998.09;;;2.22;100.00
43119;BME280;28729;49.838;8.650;2023-01-19T17:41:34;99009.19;;;2.20;100.00
43119;BME280;28729;49.838;8.650;2023-01-19T17:45:36;99002.47;;;2.23;100.00
43119;BME280;28729;49.838;8.650;2023-01-19T17:49:38;99011.47;;;2.23;100.00
43119;BME280;28729;49.838;8.650;2023-01-19T17:53:40;98998.53;;;2.19;100.00
43119;BME280;28729;49.838;8.650;2023-01-19T17:57:42;99008.38;;;2.13;100.00
43119;BME280;28729;49.838;8.650;2023-01-19T18:01:44;99021.53;;;2.16;100.00
43119;BME280;28729;49.838;8.650;2023-01-19T18:05:54;99019.63;;;2.17;100.00
43119;BME280;28729;49.838;8.650;2023-01-19T18:09:56;99015.06;;;2.11;100.00
43119;BME280;28729;49.838;8.650;2023-01-19T18:14:01;99011.53;;;2.10;100.00
43119;BME280;28729;49.838;8.650;2023-01-19T18:18:03;99021.75;;;2.15;100.00
43119;BME280;28729;49.838;8.650;2023-01-19T18:22:04;99019.22;;;2.20;100.00
43119;BME280;28729;49.838;8.650;2023-01-19T18:26:13;99024.66;;;2.26;100.00
43119;BME280;28729;49.838;8.650;2023-01-19T18:30:15;99020.66;;;2.29;100.00
43119;BME280;28729;49.838;8.650;2023-01-19T18:34:18;99023.16;;;2.31;100.00
43119;BME280;28729;49.838;8.650;2023-01-19T18:38:20;99020.22;;;2.32;100.00
43119;BME280;28729;49.838;8.650;2023-01-19T18:42:24;99024.81;;;2.32;100.00
43119;BME280;28729;49.838;8.650;2023-01-19T18:46:26;99025.66;;;2.32;100.00
43119;BME280;28729;49.838;8.650;2023-01-19T18:50:28;99029.84;;;2.28;100.00
43119;BME280;28729;49.838;8.650;2023-01-19T18:54:29;99028.81;;;2.22;100.00
43119;BME280;28729;49.838;8.650;2023-01-19T18:58:32;99031.13;;;2.19;100.00
43119;BME280;28729;49.838;8.650;2023-01-19T19:02:36;99027.63;;;2.12;100.00
43119;BME280;28729;49.838;8.650;2023-01-19T19:06:38;99036.81;;;2.11;100.00
43119;BME280;28729;49.838;8.650;2023-01-19T19:10:40;99034.34;;;2.02;100.00
43119;BME280;28729;49.838;8.650;2023-01-19T19:14:42;99033.50;;;2.02;100.00
43119;BME280;28729;49.838;8.650;2023-01-19T19:18:44;99044.78;;;2.05;100.00
43119;BME280;28729;49.838;8.650;2023-01-19T19:22:45;99038.06;;;2.08;100.00
43119;BME280;28729;49.838;8.650;2023-01-19T19:26:47;99044.13;;;2.10;100.00
43119;BME280;28729;49.838;8.650;2023-01-19T19:30:49;99040.19;;;2.06;100.00
43119;BME280;28729;49.838;8.650;2023-01-19T19:34:53;99045.63;;;2.06;100.00
43119;BME280;28729;49.838;8.650;2023-01-19T19:38:57;99045.63;;;2.06;100.00
43119;BME280;28729;49.838;8.650;2023-01-19T19:42:59;99046.03;;;2.03;100.00
43119;BME280;28729;49.838;8.650;2023-01-19T19:47:01;99052.31;;;2.03;100.00
43119;BME280;28729;49.838;8.650;2023-01-19T19:51:05;99049.38;;;2.05;100.00
43119;BME280;28729;49.838;8.650;2023-01-19T19:55:19;99057.09;;;2.08;100.00
43119;BME280;28729;49.838;8.650;2023-01-19T19:59:20;99056.88;;;2.10;100.00
43119;BME280;28729;49.838;8.650;2023-01-19T20:03:26;99048.75;;;2.10;100.00
43119;BME280;28729;49.838;8.650;2023-01-19T20:07:59;99056.66;;;2.11;100.00
43119;BME280;28729;49.838;8.650;2023-01-19T20:12:28;99061.50;;;2.09;100.00
43119;BME280;28729;49.838;8.650;2023-01-19T20:16:32;99059.38;;;2.11;100.00
43119;BME280;28729;49.838;8.650;2023-01-19T20:20:34;99056.47;;;2.13;100.00
43119;BME280;28729;49.838;8.650;2023-01-19T20:24:36;99066.94;;;2.09;100.00
43119;BME280;28729;49.838;8.650;2023-01-19T20:28:38;99063.56;;;2.14;100.00
43119;BME280;28729;49.838;8.650;2023-01-19T20:32:40;99070.69;;;2.15;100.00
43119;BME280;28729;49.838;8.650;2023-01-19T20:36:42;99069.44;;;2.17;100.00
43119;BME280;28729;49.838;8.650;2023-01-19T20:40:47;99070.69;;;2.15;100.00
43119;BME280;28729;49.838;8.650;2023-01-19T20:44:48;99074.22;;;2.15;100.00
43119;BME280;28729;49.838;8.650;2023-01-19T20:48:50;99073.59;;;2.13;100.00
43119;BME280;28729;49.838;8.650;2023-01-19T20:52:54;99078.84;;;2.15;100.00
43119;BME280;28729;49.838;8.650;2023-01-19T20:56:56;99074.84;;;2.11;100.00
43119;BME280;28729;49.838;8.650;2023-01-19T21:00:57;99073.41;;;2.08;100.00
43119;BME280;28729;49.838;8.650;2023-01-19T21:04:59;99074.88;;;2.04;100.00
43119;BME280;28729;49.838;8.650;2023-01-19T21:09:02;99076.97;;;2.02;100.00
43119;BME280;28729;49.838;8.650;2023-01-19T21:13:04;99086.59;;;1.98;100.00
43119;BME280;28729;49.838;8.650;2023-01-19T21:17:05;99090.16;;;1.98;100.00
43119;BME280;28729;49.838;8.650;2023-01-19T21:21:07;99092.66;;;2.00;100.00
43119;BME280;28729;49.838;8.650;2023-01-19T21:25:24;99091.59;;;2.01;100.00
43119;BME280;28729;49.838;8.650;2023-01-19T21:29:26;99089.94;;;2.00;100.00
43119;BME280;28729;49.838;8.650;2023-01-19T21:33:28;99100.00;;;1.99;100.00
43119;BME280;28729;49.838;8.650;2023-01-19T21:37:32;99102.06;;;1.97;100.00
43119;BME280;28729;49.838;8.650;2023-01-19T21:41:33;99111.69;;;1.93;100.00
43119;BME280;28729;49.838;8.650;2023-01-19T21:45:37;99117.94;;;1.87;100.00
43119;BME280;28729;49.838;8.650;2023-01-19T21:49:38;99121.31;;;1.76;100.00
43119;BME280;28729;49.838;8.650;2023-01-19T21:53:40;99124.25;;;1.68;100.00
43119;BME280;28729;49.838;8.650;2023-01-19T21:57:42;99128.00;;;1.60;100.00
43119;BME280;28729;49.838;8.650;2023-01-19T22:01:44;99132.19;;;1.56;100.00
43119;BME280;28729;49.838;8.650;2023-01-19T22:05:46;99129.25;;;1.51;100.00
43119;BME280;28729;49.838;8.650;2023-01-19T22:09:48;99137.59;;;1.43;100.00
43119;BME280;28729;49.838;8.650;2023-01-19T22:13:50;99151.38;;;1.34;100.00
43119;BME280;28729;49.838;8.650;2023-01-19T22:17:51;99148.63;;;1.28;100.00
43119;BME280;28729;49.838;8.650;2023-01-19T22:21:53;99153.44;;;1.26;100.00
43119;BME280;28729;49.838;8.650;2023-01-19T22:25:58;99158.66;;;1.21;100.00